sensor_id;sensor_type;location;lat;lon;timestamp;pressure;altitude;pressure_sealevel;temperature;humidity
61035;BME280;46916;40.564;-7.958;2023-01-23T00:00:25;98465.41;;;6.79;48.98
61035;BME280;46916;40.564;-7.958;2023-01-23T00:02:31;98470.47;;;6.82;49.32
61035;BME280;46916;40.564;-7.958;2023-01-23T00:04:39;98460.94;;;6.81;49.05
61035;BME280;46916;40.564;-7.958;2023-01-23T00:06:48;98474.66;;;6.84;48.74
61035;BME280;46916;40.564;-7.958;2023-01-23T00:08:53;98478.09;;;6.85;49.23
61035;BME280;46916;40.564;-7.958;2023-01-23T00:10:58;98481.63;;;6.84;48.93
61035;BME280;46916;40.564;-7.958;2023-01-23T00:13:05;98471.28;;;6.82;48.83
61035;BME280;46916;40.564;-7.958;2023-01-23T00:15:15;98479.94;;;6.83;48.63
61035;BME280;46916;40.564;-7.958;2023-01-23T00:17:21;98475.47;;;6.85;48.46
61035;BME280;46916;40.564;-7.958;2023-01-23T00:19:26;98473.66;;;6.87;48.67
61035;BME280;46916;40.564;-7.958;2023-01-23T00:21:32;98478.84;;;6.87;48.33
61035;BME280;46916;40.564;-7.958;2023-01-23T00:23:36;98471.97;;;6.86;48.13
61035;BME280;46916;40.564;-7.958;2023-01-23T00:25:39;98474.66;;;6.84;47.65
61035;BME280;46916;40.564;-7.958;2023-01-23T00:27:43;98474.59;;;6.86;47.74
61035;BME280;46916;40.564;-7.958;2023-01-23T00:29:51;98475.47;;;6.85;47.81
61035;BME280;46916;40.564;-7.958;2023-01-23T00:31:56;98471.09;;;6.85;48.27
61035;BME280;46916;40.564;-7.958;2023-01-23T00:34:05;98458.44;;;6.79;47.75
61035;BME280;46916;40.564;-7.958;2023-01-23T00:36:06;98454.31;;;6.75;48.27
61035;BME280;46916;40.564;-7.958;2023-01-23T00:38:15;98456.06;;;6.75;47.96
61035;BME280;46916;40.564;-7.958;2023-01-23T00:40:20;98452.88;;;6.69;48.07
61035;BME280;46916;40.564;-7.958;2023-01-23T00:42:24;98448.41;;;6.72;48.28
61035;BME280;46916;40.564;-7.958;2023-01-23T00:44:27;98447.50;;;6.73;48.66
61035;BME280;46916;40.564;-7.958;2023-01-23T00:46:36;98455.63;;;6.66;47.75
61035;BME280;46916;40.564;-7.958;2023-01-23T00:48:36;98452.44;;;6.61;47.96
61035;BME280;46916;40.564;-7.958;2023-01-23T00:50:46;98451.81;;;6.56;47.99
61035;BME280;46916;40.564;-7.958;2023-01-23T00:52:53;98443.31;;;6.53;47.32
61035;BME280;46916;40.564;-7.958;2023-01-23T00:54:59;98444.19;;;6.53;47.57
61035;BME280;46916;40.564;-7.958;2023-01-23T00:57:08;98435.22;;;6.59;47.57
61035;BME280;46916;40.564;-7.958;2023-01-23T00:59:09;98427.50;;;6.57;47.91
61035;BME280;46916;40.564;-7.958;2023-01-23T01:01:14;98427.56;;;6.56;47.29
61035;BME280;46916;40.564;-7.958;2023-01-23T01:03:18;98431.63;;;6.61;47.83
61035;BME280;46916;40.564;-7.958;2023-01-23T01:05:22;98417.91;;;6.58;47.11
61035;BME280;46916;40.564;-7.958;2023-01-23T01:07:31;98422.03;;;6.62;47.36
61035;BME280;46916;40.564;-7.958;2023-01-23T01:09:34;98421.00;;;6.64;47.65
61035;BME280;46916;40.564;-7.958;2023-01-23T01:11:38;98425.38;;;6.64;48.02
61035;BME280;46916;40.564;-7.958;2023-01-23T01:13:43;98428.75;;;6.66;48.20
61035;BME280;46916;40.564;-7.958;2023-01-23T01:15:44;98417.91;;;6.58;47.58
61035;BME280;46916;40.564;-7.958;2023-01-23T01:17:44;98427.25;;;6.62;47.78
61035;BME280;46916;40.564;-7.958;2023-01-23T01:19:51;98426.47;;;6.60;48.29
61035;BME280;46916;40.564;-7.958;2023-01-23T01:21:57;98420.75;;;6.53;48.27
61035;BME280;46916;40.564;-7.958;2023-01-23T01:24:04;98429.66;;;6.49;48.22
61035;BME280;46916;40.564;-7.958;2023-01-23T01:26:08;98422.16;;;6.43;48.31
61035;BME280;46916;40.564;-7.958;2023-01-23T01:28:09;98429.22;;;6.41;48.80
61035;BME280;46916;40.564;-7.958;2023-01-23T01:30:10;98426.81;;;6.36;49.23
61035;BME280;46916;40.564;-7.958;2023-01-23T01:32:17;98427.06;;;6.32;48.31
61035;BME280;46916;40.564;-7.958;2023-01-23T01:34:24;98441.78;;;6.33;48.47
61035;BME280;46916;40.564;-7.958;2023-01-23T01:36:28;98437.56;;;6.30;47.95
61035;BME280;46916;40.564;-7.958;2023-01-23T01:38:29;98438.72;;;6.25;48.75
61035;BME280;46916;40.564;-7.958;2023-01-23T01:40:37;98422.25;;;6.24;48.61
61035;BME280;46916;40.564;-7.958;2023-01-23T01:43:02;98425.38;;;6.31;48.23
61035;BME280;46916;40.564;-7.958;2023-01-23T01:45:03;98432.91;;;6.37;48.42
61035;BME280;46916;40.564;-7.958;2023-01-23T01:47:07;98433.09;;;6.32;46.66
61035;BME280;46916;40.564;-7.958;2023-01-23T01:49:25;98442.84;;;6.29;46.42
61035;BME280;46916;40.564;-7.958;2023-01-23T01:53:49;98439.22;;;6.31;46.99
61035;BME280;46916;40.564;-7.958;2023-01-23T01:55:56;98440.16;;;6.30;46.69
61035;BME280;46916;40.564;-7.958;2023-01-23T01:58:03;98441.00;;;6.31;47.06
61035;BME280;46916;40.564;-7.958;2023-01-23T02:02:23;98438.53;;;6.28;46.37
61035;BME280;46916;40.564;-7.958;2023-01-23T02:04:27;98451.31;;;6.32;47.15
61035;BME280;46916;40.564;-7.958;2023-01-23T02:06:32;98451.94;;;6.37;46.82
61035;BME280;46916;40.564;-7.958;2023-01-23T02:11:02;98447.88;;;6.49;47.67
61035;BME280;46916;40.564;-7.958;2023-01-23T02:13:35;98449.84;;;6.44;46.65
61035;BME280;46916;40.564;-7.958;2023-01-23T02:15:41;98436.16;;;6.40;47.31
61035;BME280;46916;40.564;-7.958;2023-01-23T02:17:43;98449.94;;;6.42;46.51
61035;BME280;46916;40.564;-7.958;2023-01-23T02:20:07;98446.50;;;6.42;46.51
61035;BME280;46916;40.564;-7.958;2023-01-23T02:22:21;98451.94;;;6.37;46.55
61035;BME280;46916;40.564;-7.958;2023-01-23T02:24:38;98447.56;;;6.38;47.38
61035;BME280;46916;40.564;-7.958;2023-01-23T02:26:44;98452.53;;;6.42;47.54
61035;BME280;46916;40.564;-7.958;2023-01-23T02:28:49;98447.50;;;6.39;48.04
61035;BME280;46916;40.564;-7.958;2023-01-23T02:30:59;98444.63;;;6.44;47.95
61035;BME280;46916;40.564;-7.958;2023-01-23T02:35:27;98438.16;;;6.35;48.33
61035;BME280;46916;40.564;-7.958;2023-01-23T02:37:44;98445.38;;;6.30;48.08
61035;BME280;46916;40.564;-7.958;2023-01-23T02:39:48;98436.19;;;6.23;48.31
61035;BME280;46916;40.564;-7.958;2023-01-23T02:41:58;98438.78;;;6.23;48.36
61035;BME280;46916;40.564;-7.958;2023-01-23T02:44:23;98435.66;;;6.16;47.70
61035;BME280;46916;40.564;-7.958;2023-01-23T02:46:33;98434.06;;;6.14;47.93
61035;BME280;46916;40.564;-7.958;2023-01-23T02:48:42;98438.88;;;6.22;47.63
61035;BME280;46916;40.564;-7.958;2023-01-23T02:50:45;98432.66;;;6.24;48.43
61035;BME280;46916;40.564;-7.958;2023-01-23T02:52:51;98425.63;;;6.26;48.18
61035;BME280;46916;40.564;-7.958;2023-01-23T02:54:57;98433.34;;;6.28;48.11
61035;BME280;46916;40.564;-7.958;2023-01-23T02:57:01;98438.53;;;6.28;48.46
61035;BME280;46916;40.564;-7.958;2023-01-23T02:59:11;98425.63;;;6.26;47.88
61035;BME280;46916;40.564;-7.958;2023-01-23T03:01:30;98431.22;;;6.18;47.69
61035;BME280;46916;40.564;-7.958;2023-01-23T03:03:35;98420.50;;;6.07;48.22
61035;BME280;46916;40.564;-7.958;2023-01-23T03:05:41;98419.53;;;6.10;48.50
61035;BME280;46916;40.564;-7.958;2023-01-23T03:07:48;98435.66;;;6.16;47.68
61035;BME280;46916;40.564;-7.958;2023-01-23T03:09:55;98430.28;;;6.19;47.84
61035;BME280;46916;40.564;-7.958;2023-01-23T03:12:00;98428.38;;;6.23;48.01
61035;BME280;46916;40.564;-7.958;2023-01-23T03:14:10;98430.13;;;6.23;48.05
61035;BME280;46916;40.564;-7.958;2023-01-23T03:16:17;98426.00;;;6.18;48.41
61035;BME280;46916;40.564;-7.958;2023-01-23T03:18:18;98420.81;;;6.18;48.45
61035;BME280;46916;40.564;-7.958;2023-01-23T03:20:25;98426.16;;;6.15;48.56
61035;BME280;46916;40.564;-7.958;2023-01-23T03:22:36;98420.34;;;6.10;48.05
61035;BME280;46916;40.564;-7.958;2023-01-23T03:24:44;98417.91;;;6.07;48.84
61035;BME280;46916;40.564;-7.958;2023-01-23T03:26:49;98417.91;;;6.07;48.76
61035;BME280;46916;40.564;-7.958;2023-01-23T03:28:57;98423.09;;;6.07;49.00
61035;BME280;46916;40.564;-7.958;2023-01-23T03:31:22;98423.09;;;6.07;48.87
61035;BME280;46916;40.564;-7.958;2023-01-23T03:33:26;98417.31;;;6.02;49.10
61035;BME280;46916;40.564;-7.958;2023-01-23T03:35:29;98416.72;;;5.97;48.68
61035;BME280;46916;40.564;-7.958;2023-01-23T03:37:39;98419.16;;;6.00;49.09
61035;BME280;46916;40.564;-7.958;2023-01-23T03:39:41;98415.78;;;5.98;48.83
61035;BME280;46916;40.564;-7.958;2023-01-23T03:42:00;98408.13;;;5.95;49.24
61035;BME280;46916;40.564;-7.958;2023-01-23T03:44:07;98410.00;;;5.91;48.99
61035;BME280;46916;40.564;-7.958;2023-01-23T03:46:12;98408.47;;;5.87;49.39
61035;BME280;46916;40.564;-7.958;2023-01-23T03:48:16;98401.75;;;5.83;49.77
61035;BME280;46916;40.564;-7.958;2023-01-23T03:50:20;98404.97;;;5.88;49.76
61035;BME280;46916;40.564;-7.958;2023-01-23T03:52:26;98407.56;;;5.88;49.67
61035;BME280;46916;40.564;-7.958;2023-01-23T03:54:36;98404.13;;;5.88;50.04
61035;BME280;46916;40.564;-7.958;2023-01-23T03:56:42;98399.09;;;5.85;49.89
61035;BME280;46916;40.564;-7.958;2023-01-23T03:59:01;98400.06;;;5.82;50.57
61035;BME280;46916;40.564;-7.958;2023-01-23T04:01:06;98393.94;;;5.83;49.95
61035;BME280;46916;40.564;-7.958;2023-01-23T04:03:13;98407.50;;;5.90;49.72
61035;BME280;46916;40.564;-7.958;2023-01-23T04:05:16;98391.19;;;5.86;49.71
61035;BME280;46916;40.564;-7.958;2023-01-23T04:07:25;98398.94;;;5.88;49.64
61035;BME280;46916;40.564;-7.958;2023-01-23T04:09:29;98404.88;;;5.90;49.67
61035;BME280;46916;40.564;-7.958;2023-01-23T04:11:33;98398.84;;;5.89;49.80
61035;BME280;46916;40.564;-7.958;2023-01-23T04:13:39;98385.94;;;5.88;49.39
61035;BME280;46916;40.564;-7.958;2023-01-23T04:15:43;98392.13;;;5.85;49.71
61035;BME280;46916;40.564;-7.958;2023-01-23T04:17:50;98382.94;;;5.78;49.29
61035;BME280;46916;40.564;-7.958;2023-01-23T04:20:01;98373.94;;;5.85;49.78
61035;BME280;46916;40.564;-7.958;2023-01-23T04:22:10;98375.59;;;5.86;49.72
61035;BME280;46916;40.564;-7.958;2023-01-23T04:24:24;98370.63;;;5.82;50.06
61035;BME280;46916;40.564;-7.958;2023-01-23T04:26:27;98364.00;;;5.76;50.11
61035;BME280;46916;40.564;-7.958;2023-01-23T04:28:35;98366.50;;;5.78;50.50
61035;BME280;46916;40.564;-7.958;2023-01-23T04:30:42;98369.88;;;5.80;50.15
61035;BME280;46916;40.564;-7.958;2023-01-23T04:32:52;98369.00;;;5.79;49.58
61035;BME280;46916;40.564;-7.958;2023-01-23T04:34:56;98370.88;;;5.77;50.62
61035;BME280;46916;40.564;-7.958;2023-01-23T04:37:00;98372.78;;;5.74;50.07
61035;BME280;46916;40.564;-7.958;2023-01-23T04:39:03;98371.16;;;5.71;50.43
61035;BME280;46916;40.564;-7.958;2023-01-23T04:41:32;98359.22;;;5.67;50.45
61035;BME280;46916;40.564;-7.958;2023-01-23T04:43:56;98364.53;;;5.65;50.45
61035;BME280;46916;40.564;-7.958;2023-01-23T04:46:37;98358.41;;;5.66;51.24
61035;BME280;46916;40.564;-7.958;2023-01-23T04:48:45;98361.00;;;5.66;50.92
61035;BME280;46916;40.564;-7.958;2023-01-23T04:50:47;98363.59;;;5.66;50.89
61035;BME280;46916;40.564;-7.958;2023-01-23T04:52:51;98365.97;;;5.71;50.56
61035;BME280;46916;40.564;-7.958;2023-01-23T04:55:01;98371.25;;;5.69;50.37
61035;BME280;46916;40.564;-7.958;2023-01-23T04:57:10;98366.06;;;5.69;50.56
61035;BME280;46916;40.564;-7.958;2023-01-23T04:59:15;98373.28;;;5.63;50.27
61035;BME280;46916;40.564;-7.958;2023-01-23T05:01:24;98378.66;;;5.60;49.95
61035;BME280;46916;40.564;-7.958;2023-01-23T05:03:37;98382.09;;;5.60;50.28
61035;BME280;46916;40.564;-7.958;2023-01-23T05:05:41;98372.78;;;5.56;50.09
61035;BME280;46916;40.564;-7.958;2023-01-23T05:07:53;98379.88;;;5.53;50.07
61035;BME280;46916;40.564;-7.958;2023-01-23T05:09:57;98362.16;;;5.43;49.77
61035;BME280;46916;40.564;-7.958;2023-01-23T05:11:58;98350.38;;;5.36;50.04
61035;BME280;46916;40.564;-7.958;2023-01-23T05:14:03;98364.28;;;5.35;50.22
61035;BME280;46916;40.564;-7.958;2023-01-23T05:16:05;98359.16;;;5.34;50.99
61035;BME280;46916;40.564;-7.958;2023-01-23T05:18:49;98379.03;;;5.35;51.01
61035;BME280;46916;40.564;-7.958;2023-01-23T05:20:56;98369.53;;;5.34;50.95
61035;BME280;46916;40.564;-7.958;2023-01-23T05:22:59;98367.09;;;5.31;51.25
61035;BME280;46916;40.564;-7.958;2023-01-23T05:25:11;98368.16;;;5.27;51.72
61035;BME280;46916;40.564;-7.958;2023-01-23T05:27:18;98369.91;;;5.26;51.76
61035;BME280;46916;40.564;-7.958;2023-01-23T05:29:26;98364.09;;;5.21;51.47
61035;BME280;46916;40.564;-7.958;2023-01-23T05:31:46;98358.97;;;5.19;51.91
61035;BME280;46916;40.564;-7.958;2023-01-23T05:34:09;98367.47;;;5.23;51.90
61035;BME280;46916;40.564;-7.958;2023-01-23T05:36:16;98367.06;;;5.13;51.57
61035;BME280;46916;40.564;-7.958;2023-01-23T05:38:17;98367.28;;;5.09;50.99
61035;BME280;46916;40.564;-7.958;2023-01-23T05:40:23;98374.38;;;5.05;50.55
61035;BME280;46916;40.564;-7.958;2023-01-23T05:42:49;98363.38;;;5.00;50.50
61035;BME280;46916;40.564;-7.958;2023-01-23T05:45:13;98367.34;;;5.07;50.07
61035;BME280;46916;40.564;-7.958;2023-01-23T05:47:22;98362.31;;;5.04;50.23
61035;BME280;46916;40.564;-7.958;2023-01-23T05:49:29;98350.38;;;5.00;49.88
61035;BME280;46916;40.564;-7.958;2023-01-23T05:51:32;98343.50;;;4.99;49.69
61035;BME280;46916;40.564;-7.958;2023-01-23T05:53:37;98358.16;;;5.00;49.91
61035;BME280;46916;40.564;-7.958;2023-01-23T05:55:42;98367.81;;;4.98;50.45
61035;BME280;46916;40.564;-7.958;2023-01-23T05:57:44;98361.75;;;4.97;50.44
61035;BME280;46916;40.564;-7.958;2023-01-23T06:00:08;98368.00;;;4.93;49.68
61035;BME280;46916;40.564;-7.958;2023-01-23T06:02:33;98352.63;;;4.89;49.56
61035;BME280;46916;40.564;-7.958;2023-01-23T06:04:56;98359.44;;;4.91;50.26
61035;BME280;46916;40.564;-7.958;2023-01-23T06:07:15;98356.97;;;4.88;49.96
61035;BME280;46916;40.564;-7.958;2023-01-23T06:09:20;98357.81;;;4.89;50.15
61035;BME280;46916;40.564;-7.958;2023-01-23T06:11:23;98361.34;;;4.88;50.31
61035;BME280;46916;40.564;-7.958;2023-01-23T06:13:27;98362.53;;;4.81;50.63
61035;BME280;46916;40.564;-7.958;2023-01-23T06:15:32;98364.63;;;4.72;50.35
61035;BME280;46916;40.564;-7.958;2023-01-23T06:17:39;98362.84;;;4.75;50.01
61035;BME280;46916;40.564;-7.958;2023-01-23T06:19:43;98366.34;;;4.74;50.66
61035;BME280;46916;40.564;-7.958;2023-01-23T06:21:49;98367.03;;;4.77;50.75
61035;BME280;46916;40.564;-7.958;2023-01-23T06:23:52;98358.47;;;4.75;50.19
61035;BME280;46916;40.564;-7.958;2023-01-23T06:25:58;98360.44;;;4.70;50.22
61035;BME280;46916;40.564;-7.958;2023-01-23T06:28:02;98357.19;;;4.65;50.25
61035;BME280;46916;40.564;-7.958;2023-01-23T06:30:08;98358.13;;;4.64;50.49
61035;BME280;46916;40.564;-7.958;2023-01-23T06:32:13;98359.88;;;4.63;50.50
61035;BME280;46916;40.564;-7.958;2023-01-23T06:34:23;98357.28;;;4.63;50.76
61035;BME280;46916;40.564;-7.958;2023-01-23T06:36:33;98357.72;;;4.54;51.28
61035;BME280;46916;40.564;-7.958;2023-01-23T06:38:38;98362.47;;;4.63;51.15
61035;BME280;46916;40.564;-7.958;2023-01-23T06:40:51;98356.38;;;4.64;51.21
61035;BME280;46916;40.564;-7.958;2023-01-23T06:43:07;98362.03;;;4.72;50.84
61035;BME280;46916;40.564;-7.958;2023-01-23T06:45:09;98361.28;;;4.70;51.09
61035;BME280;46916;40.564;-7.958;2023-01-23T06:47:21;98356.84;;;4.72;51.49
61035;BME280;46916;40.564;-7.958;2023-01-23T06:49:32;98367.88;;;4.78;51.21
61035;BME280;46916;40.564;-7.958;2023-01-23T06:51:41;98358.03;;;4.84;51.48
61035;BME280;46916;40.564;-7.958;2023-01-23T06:53:47;98352.09;;;4.82;51.76
61035;BME280;46916;40.564;-7.958;2023-01-23T06:55:47;98347.97;;;4.78;51.52
61035;BME280;46916;40.564;-7.958;2023-01-23T06:57:53;98337.72;;;4.75;51.38
61035;BME280;46916;40.564;-7.958;2023-01-23T07:00:00;98342.78;;;4.78;51.49
61035;BME280;46916;40.564;-7.958;2023-01-23T07:02:08;98346.06;;;4.82;50.90
61035;BME280;46916;40.564;-7.958;2023-01-23T07:04:18;98349.41;;;4.84;51.16
61035;BME280;46916;40.564;-7.958;2023-01-23T07:06:27;98347.19;;;4.76;52.13
61035;BME280;46916;40.564;-7.958;2023-01-23T07:08:33;98347.41;;;4.71;51.86
61035;BME280;46916;40.564;-7.958;2023-01-23T07:10:44;98352.44;;;4.75;51.42
61035;BME280;46916;40.564;-7.958;2023-01-23T07:12:51;98345.22;;;4.62;51.49
61035;BME280;46916;40.564;-7.958;2023-01-23T07:14:55;98353.63;;;4.67;51.75
61035;BME280;46916;40.564;-7.958;2023-01-23T07:17:06;98344.94;;;4.68;51.32
61035;BME280;46916;40.564;-7.958;2023-01-23T07:19:18;98344.94;;;4.68;51.58
61035;BME280;46916;40.564;-7.958;2023-01-23T07:21:26;98345.63;;;4.72;51.38
61035;BME280;46916;40.564;-7.958;2023-01-23T07:23:27;98343.81;;;4.55;51.97
61035;BME280;46916;40.564;-7.958;2023-01-23T07:25:35;98346.72;;;4.49;51.97
61035;BME280;46916;40.564;-7.958;2023-01-23T07:27:38;98351.25;;;4.44;52.55
61035;BME280;46916;40.564;-7.958;2023-01-23T07:29:43;98354.88;;;4.40;52.13
61035;BME280;46916;40.564;-7.958;2023-01-23T07:31:50;98345.63;;;4.34;52.17
61035;BME280;46916;40.564;-7.958;2023-01-23T07:33:54;98345.63;;;4.34;52.32
61035;BME280;46916;40.564;-7.958;2023-01-23T07:35:57;98345.63;;;4.34;52.66
61035;BME280;46916;40.564;-7.958;2023-01-23T07:38:01;98338.00;;;4.31;52.63
61035;BME280;46916;40.564;-7.958;2023-01-23T07:40:04;98338.97;;;4.29;52.33
61035;BME280;46916;40.564;-7.958;2023-01-23T07:42:08;98331.25;;;4.27;53.10
61035;BME280;46916;40.564;-7.958;2023-01-23T07:44:15;98337.44;;;4.25;52.60
61035;BME280;46916;40.564;-7.958;2023-01-23T07:46:19;98349.50;;;4.26;53.94
61035;BME280;46916;40.564;-7.958;2023-01-23T07:48:26;98346.94;;;4.24;52.88
61035;BME280;46916;40.564;-7.958;2023-01-23T07:50:29;98347.81;;;4.25;53.45
61035;BME280;46916;40.564;-7.958;2023-01-23T07:52:38;98347.03;;;4.22;53.40
61035;BME280;46916;40.564;-7.958;2023-01-23T07:54:39;98347.03;;;4.22;53.98
61035;BME280;46916;40.564;-7.958;2023-01-23T07:56:48;98347.81;;;4.25;53.52
61035;BME280;46916;40.564;-7.958;2023-01-23T07:58:52;98341.47;;;4.11;54.08
61035;BME280;46916;40.564;-7.958;2023-01-23T08:01:08;98342.25;;;4.13;54.07
61035;BME280;46916;40.564;-7.958;2023-01-23T08:03:12;98349.75;;;4.19;54.59
61035;BME280;46916;40.564;-7.958;2023-01-23T08:05:15;98346.88;;;4.44;53.67
61035;BME280;46916;40.564;-7.958;2023-01-23T08:07:16;98337.38;;;4.64;53.24
61035;BME280;46916;40.564;-7.958;2023-01-23T08:09:17;98334.31;;;4.92;51.69
61035;BME280;46916;40.564;-7.958;2023-01-23T08:11:17;98341.66;;;5.01;52.07
61035;BME280;46916;40.564;-7.958;2023-01-23T08:13:18;98334.81;;;5.17;51.70
61035;BME280;46916;40.564;-7.958;2023-01-23T08:15:19;98336.81;;;5.30;51.07
61035;BME280;46916;40.564;-7.958;2023-01-23T08:17:20;98346.72;;;5.40;50.98
61035;BME280;46916;40.564;-7.958;2023-01-23T08:19:21;98361.09;;;5.47;50.18
61035;BME280;46916;40.564;-7.958;2023-01-23T08:21:24;98349.81;;;5.30;49.97
61035;BME280;46916;40.564;-7.958;2023-01-23T08:23:27;98355.00;;;5.30;50.73
61035;BME280;46916;40.564;-7.958;2023-01-23T08:25:28;98353.19;;;5.32;50.76
61035;BME280;46916;40.564;-7.958;2023-01-23T08:27:29;98354.72;;;5.36;51.15
61035;BME280;46916;40.564;-7.958;2023-01-23T08:29:35;98340.97;;;5.34;51.05
61035;BME280;46916;40.564;-7.958;2023-01-23T08:31:39;98353.28;;;5.47;50.79
61035;BME280;46916;40.564;-7.958;2023-01-23T08:33:40;98338.53;;;5.65;53.48
61035;BME280;46916;40.564;-7.958;2023-01-23T08:35:51;98348.91;;;5.83;55.18
61035;BME280;46916;40.564;-7.958;2023-01-23T08:37:52;98357.81;;;5.96;50.17
61035;BME280;46916;40.564;-7.958;2023-01-23T08:39:55;98349.84;;;5.99;54.65
61035;BME280;46916;40.564;-7.958;2023-01-23T08:42:02;98349.09;;;6.30;54.24
61035;BME280;46916;40.564;-7.958;2023-01-23T08:44:03;98349.19;;;6.44;52.14
61035;BME280;46916;40.564;-7.958;2023-01-23T08:46:04;98365.19;;;6.54;51.15
61035;BME280;46916;40.564;-7.958;2023-01-23T08:48:07;98358.78;;;6.60;50.27
61035;BME280;46916;40.564;-7.958;2023-01-23T08:50:11;98359.50;;;6.79;50.97
61035;BME280;46916;40.564;-7.958;2023-01-23T08:52:20;98368.66;;;7.02;50.56
61035;BME280;46916;40.564;-7.958;2023-01-23T08:54:21;98362.41;;;7.20;48.95
61035;BME280;46916;40.564;-7.958;2023-01-23T08:56:28;98368.03;;;7.29;49.11
61035;BME280;46916;40.564;-7.958;2023-01-23T08:58:38;98361.19;;;7.42;48.92
61035;BME280;46916;40.564;-7.958;2023-01-23T09:00:42;98354.09;;;7.60;48.89
61035;BME280;46916;40.564;-7.958;2023-01-23T09:02:43;98364.28;;;7.79;48.54
61035;BME280;46916;40.564;-7.958;2023-01-23T09:04:44;98362.25;;;7.84;47.58
61035;BME280;46916;40.564;-7.958;2023-01-23T09:06:48;98364.66;;;7.87;47.04
61035;BME280;46916;40.564;-7.958;2023-01-23T09:08:49;98367.47;;;7.84;47.30
61035;BME280;46916;40.564;-7.958;2023-01-23T09:10:52;98367.47;;;7.84;46.91
61035;BME280;46916;40.564;-7.958;2023-01-23T09:12:56;98365.88;;;7.95;46.49
61035;BME280;46916;40.564;-7.958;2023-01-23T09:15:00;98366.16;;;7.91;46.31
61035;BME280;46916;40.564;-7.958;2023-01-23T09:17:04;98366.94;;;7.93;46.35
61035;BME280;46916;40.564;-7.958;2023-01-23T09:19:05;98364.59;;;7.88;46.00
61035;BME280;46916;40.564;-7.958;2023-01-23T09:21:13;98364.94;;;7.82;46.42
61035;BME280;46916;40.564;-7.958;2023-01-23T09:23:14;98355.91;;;7.74;46.28
61035;BME280;46916;40.564;-7.958;2023-01-23T09:25:21;98375.47;;;7.81;46.14
61035;BME280;46916;40.564;-7.958;2023-01-23T09:27:22;98365.13;;;7.79;45.72
61035;BME280;46916;40.564;-7.958;2023-01-23T09:29:22;98367.09;;;7.76;45.64
61035;BME280;46916;40.564;-7.958;2023-01-23T09:31:23;98378.31;;;7.92;45.38
61035;BME280;46916;40.564;-7.958;2023-01-23T09:33:30;98365.88;;;7.81;46.17
61035;BME280;46916;40.564;-7.958;2023-01-23T09:35:32;98373.47;;;8.00;46.46
61035;BME280;46916;40.564;-7.958;2023-01-23T09:37:36;98385.19;;;8.07;45.48
61035;BME280;46916;40.564;-7.958;2023-01-23T09:39:55;98378.13;;;8.09;45.56
61035;BME280;46916;40.564;-7.958;2023-01-23T09:42:03;98382.16;;;8.15;45.95
61035;BME280;46916;40.564;-7.958;2023-01-23T09:46:47;98373.50;;;8.29;45.41
61035;BME280;46916;40.564;-7.958;2023-01-23T09:48:58;98374.06;;;8.34;45.64
61035;BME280;46916;40.564;-7.958;2023-01-23T09:51:09;98381.38;;;8.57;44.10
61035;BME280;46916;40.564;-7.958;2023-01-23T09:53:15;98377.16;;;8.40;44.86
61035;BME280;46916;40.564;-7.958;2023-01-23T09:57:59;98379.88;;;8.39;44.37
61035;BME280;46916;40.564;-7.958;2023-01-23T10:02:29;98377.97;;;8.27;44.99
61035;BME280;46916;40.564;-7.958;2023-01-23T10:04:30;98379.63;;;8.28;44.47
61035;BME280;46916;40.564;-7.958;2023-01-23T10:07:12;98370.25;;;8.25;44.93
61035;BME280;46916;40.564;-7.958;2023-01-23T10:09:39;98366.03;;;8.23;45.53
61035;BME280;46916;40.564;-7.958;2023-01-23T10:14:21;98370.31;;;8.24;44.07
61035;BME280;46916;40.564;-7.958;2023-01-23T10:16:53;98368.75;;;8.21;44.25
61035;BME280;46916;40.564;-7.958;2023-01-23T10:19:23;98374.78;;;8.22;45.77
61035;BME280;46916;40.564;-7.958;2023-01-23T10:21:45;98366.34;;;8.47;46.06
61035;BME280;46916;40.564;-7.958;2023-01-23T10:26:26;98363.78;;;8.88;45.28
61035;BME280;46916;40.564;-7.958;2023-01-23T10:30:39;98370.47;;;9.06;44.50
61035;BME280;46916;40.564;-7.958;2023-01-23T10:32:55;98365.88;;;9.10;44.28
61035;BME280;46916;40.564;-7.958;2023-01-23T10:35:04;98371.84;;;9.12;44.03
61035;BME280;46916;40.564;-7.958;2023-01-23T10:37:50;98367.47;;;9.12;43.94
61035;BME280;46916;40.564;-7.958;2023-01-23T10:40:22;98375.84;;;9.17;43.85
61035;BME280;46916;40.564;-7.958;2023-01-23T10:42:40;98370.31;;;9.22;42.57
61035;BME280;46916;40.564;-7.958;2023-01-23T10:44:41;98371.78;;;9.26;42.67
61035;BME280;46916;40.564;-7.958;2023-01-23T10:46:54;98362.19;;;9.27;43.77
61035;BME280;46916;40.564;-7.958;2023-01-23T10:48:59;98365.34;;;9.32;43.07
61035;BME280;46916;40.564;-7.958;2023-01-23T10:51:01;98353.84;;;9.34;42.16
61035;BME280;46916;40.564;-7.958;2023-01-23T10:53:14;98353.22;;;9.31;42.32
61035;BME280;46916;40.564;-7.958;2023-01-23T10:57:24;98345.91;;;9.36;43.47
61035;BME280;46916;40.564;-7.958;2023-01-23T11:01:34;98344.34;;;9.46;42.22
61035;BME280;46916;40.564;-7.958;2023-01-23T11:03:35;98340.06;;;9.45;42.17
61035;BME280;46916;40.564;-7.958;2023-01-23T11:05:39;98340.94;;;9.58;41.53
61035;BME280;46916;40.564;-7.958;2023-01-23T11:07:52;98346.34;;;9.42;42.53
61035;BME280;46916;40.564;-7.958;2023-01-23T11:10:22;98341.53;;;9.49;41.69
61035;BME280;46916;40.564;-7.958;2023-01-23T11:12:26;98329.63;;;9.45;43.13
61035;BME280;46916;40.564;-7.958;2023-01-23T11:14:30;98337.41;;;9.59;43.19
61035;BME280;46916;40.564;-7.958;2023-01-23T11:16:35;98333.75;;;9.75;42.19
61035;BME280;46916;40.564;-7.958;2023-01-23T11:18:41;98331.34;;;9.72;41.61
61035;BME280;46916;40.564;-7.958;2023-01-23T11:20:54;98324.66;;;9.67;42.23
61035;BME280;46916;40.564;-7.958;2023-01-23T11:23:05;98326.94;;;9.59;41.53
61035;BME280;46916;40.564;-7.958;2023-01-23T11:25:30;98309.78;;;9.55;41.56
61035;BME280;46916;40.564;-7.958;2023-01-23T11:27:31;98318.88;;;9.62;41.15
61035;BME280;46916;40.564;-7.958;2023-01-23T11:32:12;98312.41;;;9.68;40.94
61035;BME280;46916;40.564;-7.958;2023-01-23T11:34:15;98301.13;;;9.67;41.30
61035;BME280;46916;40.564;-7.958;2023-01-23T11:38:46;98294.81;;;9.83;39.29
61035;BME280;46916;40.564;-7.958;2023-01-23T11:40:50;98297.66;;;9.80;38.70
61035;BME280;46916;40.564;-7.958;2023-01-23T11:42:51;98296.41;;;9.73;38.13
61035;BME280;46916;40.564;-7.958;2023-01-23T11:44:57;98287.72;;;9.72;39.06
61035;BME280;46916;40.564;-7.958;2023-01-23T11:54:44;98272.34;;;9.67;35.74
61035;BME280;46916;40.564;-7.958;2023-01-23T12:06:14;98260.59;;;9.48;36.34